createdAt,value
2019-03-22T00:01:51.676Z,10.84
2019-03-22T00:03:51.669Z,10.85
2019-03-22T00:07:51.658Z,10.83
2019-03-22T00:09:51.679Z,10.84
2019-03-22T00:13:51.672Z,10.82
2019-03-22T00:15:51.687Z,10.83
2019-03-22T00:19:51.687Z,10.83
2019-03-22T00:21:51.689Z,10.82
2019-03-22T00:25:51.663Z,10.81
2019-03-22T00:27:51.676Z,10.81
2019-03-22T00:31:51.682Z,10.81
2019-03-22T00:33:56.193Z,10.80
2019-03-22T00:37:51.692Z,10.81
2019-03-22T00:39:51.686Z,10.79
2019-03-22T00:43:51.690Z,10.78
2019-03-22T00:45:51.697Z,10.80
2019-03-22T00:49:51.709Z,10.78
2019-03-22T00:51:51.706Z,10.77
2019-03-22T00:55:51.687Z,10.77
2019-03-22T00:57:51.723Z,10.77
2019-03-22T01:01:51.710Z,10.77
2019-03-22T01:03:51.730Z,10.77
2019-03-22T01:07:51.725Z,10.76
2019-03-22T01:09:51.740Z,10.76
2019-03-22T01:13:51.720Z,10.75
2019-03-22T01:15:51.756Z,10.75
2019-03-22T01:19:51.735Z,10.74
2019-03-22T01:21:56.746Z,10.75
2019-03-22T01:25:51.735Z,10.74
2019-03-22T01:27:51.740Z,10.74
2019-03-22T01:31:51.735Z,10.74
2019-03-22T01:33:56.760Z,10.73
2019-03-22T01:37:51.736Z,10.72
2019-03-22T01:39:51.749Z,10.71
2019-03-22T01:43:51.755Z,10.73
2019-03-22T01:45:51.761Z,10.71
2019-03-22T01:49:51.770Z,10.71
2019-03-22T01:51:51.769Z,10.70
2019-03-22T01:55:51.772Z,10.70
2019-03-22T01:57:53.625Z,10.71
2019-03-22T02:01:56.778Z,10.70
2019-03-22T02:03:56.720Z,10.70
2019-03-22T02:07:56.745Z,10.68
2019-03-22T02:09:56.186Z,10.69
2019-03-22T02:13:51.808Z,10.68
2019-03-22T02:15:51.772Z,10.69
2019-03-22T02:19:51.767Z,10.68
2019-03-22T02:21:56.718Z,10.67
2019-03-22T02:25:51.787Z,10.66
2019-03-22T02:28:03.464Z,10.66
2019-03-22T02:31:51.794Z,10.66
2019-03-22T02:33:56.809Z,10.66
2019-03-22T02:37:54.120Z,10.65
2019-03-22T02:39:51.810Z,10.65
2019-03-22T02:43:56.984Z,10.65
2019-03-22T02:45:51.801Z,10.64
2019-03-22T02:49:51.808Z,10.63
2019-03-22T02:51:56.802Z,10.62
2019-03-22T02:55:57.145Z,10.63
2019-03-22T02:57:51.813Z,10.63
2019-03-22T03:01:51.809Z,10.62
2019-03-22T03:03:51.842Z,10.62
2019-03-22T03:07:51.812Z,10.61
2019-03-22T03:09:51.848Z,10.61
2019-03-22T03:13:51.843Z,10.60
2019-03-22T03:15:51.827Z,10.59
2019-03-22T03:19:51.836Z,10.60
2019-03-22T03:21:51.847Z,10.60
2019-03-22T03:25:51.845Z,10.59
2019-03-22T03:27:51.846Z,10.60
2019-03-22T03:31:56.873Z,10.59
2019-03-22T03:33:51.869Z,10.59
2019-03-22T03:37:51.848Z,10.58
2019-03-22T03:39:51.857Z,10.59
2019-03-22T03:43:51.855Z,10.57
2019-03-22T03:45:51.883Z,10.57
2019-03-22T03:49:51.875Z,10.56
2019-03-22T03:52:00.952Z,10.57
2019-03-22T03:55:51.861Z,10.55
2019-03-22T03:57:51.857Z,10.55
2019-03-22T04:01:56.841Z,10.54
2019-03-22T04:03:51.863Z,10.54
2019-03-22T04:07:56.914Z,10.55
2019-03-22T04:09:51.877Z,10.53
2019-03-22T04:13:51.868Z,10.54
2019-03-22T04:15:56.337Z,10.52
2019-03-22T04:19:51.883Z,10.52
2019-03-22T04:21:51.881Z,10.51
2019-03-22T04:25:56.867Z,10.49
2019-03-22T04:27:51.900Z,10.50
2019-03-22T04:31:51.884Z,10.51
2019-03-22T04:33:51.916Z,10.50
2019-03-22T04:37:51.905Z,10.49
2019-03-22T04:39:51.914Z,10.49
2019-03-22T04:43:51.929Z,10.47
2019-03-22T04:45:56.935Z,10.46
2019-03-22T04:49:51.898Z,10.47
2019-03-22T04:51:51.906Z,10.46
2019-03-22T04:55:51.916Z,10.46
2019-03-22T04:57:51.911Z,10.46
2019-03-22T05:01:51.936Z,10.44
2019-03-22T05:03:51.928Z,10.43
2019-03-22T05:07:51.940Z,10.44
2019-03-22T05:09:51.925Z,10.42
2019-03-22T05:13:51.924Z,10.43
2019-03-22T05:15:51.949Z,10.43
2019-03-22T05:19:51.942Z,10.43
2019-03-22T05:21:51.958Z,10.42
2019-03-22T05:25:56.929Z,10.42
2019-03-22T05:27:51.936Z,10.41
2019-03-22T05:31:51.947Z,10.40
2019-03-22T05:33:56.914Z,10.39
2019-03-22T05:37:51.951Z,10.39
2019-03-22T05:39:51.960Z,10.39
2019-03-22T05:43:51.955Z,10.39
2019-03-22T05:45:51.953Z,10.38
2019-03-22T05:49:51.956Z,10.37
2019-03-22T05:51:51.965Z,10.38
2019-03-22T05:55:51.968Z,10.36
2019-03-22T05:57:51.968Z,10.36
2019-03-22T06:01:51.983Z,10.36
2019-03-22T06:03:51.969Z,10.36
2019-03-22T06:07:51.968Z,10.36
2019-03-22T06:09:51.983Z,10.34
2019-03-22T06:13:51.986Z,10.32
2019-03-22T06:15:51.983Z,10.33
2019-03-22T06:19:51.978Z,10.33
2019-03-22T06:21:56.638Z,10.33
2019-03-22T06:25:52.001Z,10.34
2019-03-22T06:27:52.011Z,10.32
2019-03-22T06:31:52.011Z,10.32
2019-03-22T06:33:52.013Z,10.33
2019-03-22T06:37:52.034Z,10.31
2019-03-22T06:39:52.012Z,10.32
2019-03-22T06:43:57.024Z,10.30
2019-03-22T06:45:52.002Z,10.30
2019-03-22T06:49:52.019Z,10.29
2019-03-22T06:51:56.943Z,10.31
2019-03-22T06:55:52.048Z,10.29
2019-03-22T06:57:52.056Z,10.29
2019-03-22T07:01:52.011Z,10.29
2019-03-22T07:03:52.048Z,10.28
2019-03-22T07:07:52.037Z,10.28
2019-03-22T07:09:55.745Z,10.28
2019-03-22T07:13:52.034Z,10.27
2019-03-22T07:15:55.699Z,10.27
2019-03-22T07:19:52.052Z,10.27
2019-03-22T07:21:52.069Z,10.27
2019-03-22T07:25:52.074Z,10.26
2019-03-22T07:27:52.057Z,10.28
2019-03-22T07:31:52.062Z,10.26
2019-03-22T07:33:52.068Z,10.25
2019-03-22T07:37:55.848Z,10.27
2019-03-22T07:39:53.862Z,10.27
2019-03-22T07:43:52.073Z,10.25
2019-03-22T07:45:57.094Z,10.26
2019-03-22T07:53:52.067Z,10.24
2019-03-22T07:55:54.357Z,10.25
2019-03-22T08:00:08.891Z,10.25
2019-03-22T08:01:57.511Z,10.23
2019-03-22T08:05:52.075Z,10.23
2019-03-22T08:07:52.094Z,10.25
2019-03-22T08:11:52.086Z,10.24
2019-03-22T08:13:55.660Z,10.25
2019-03-22T08:17:57.237Z,10.24
2019-03-22T08:20:18.582Z,10.23
2019-03-22T08:23:55.886Z,10.25
2019-03-22T08:25:52.109Z,10.24
2019-03-22T08:29:52.114Z,10.25
2019-03-22T08:31:59.937Z,10.24
2019-03-22T08:35:52.137Z,10.24
2019-03-22T08:37:53.072Z,10.26
2019-03-22T08:41:52.122Z,10.24
2019-03-22T08:43:52.121Z,10.25
2019-03-22T08:47:52.128Z,10.26
2019-03-22T08:50:04.108Z,10.25
2019-03-22T08:53:55.458Z,10.26
2019-03-22T08:55:57.169Z,10.26
2019-03-22T08:59:52.136Z,10.26
2019-03-22T09:01:52.137Z,10.26
2019-03-22T09:05:52.168Z,10.27
2019-03-22T09:07:52.202Z,10.27
2019-03-22T09:11:56.702Z,10.28
2019-03-22T09:13:53.761Z,10.26
2019-03-22T09:17:52.248Z,10.28
2019-03-22T09:19:52.255Z,10.28
2019-03-22T09:23:56.776Z,10.28
2019-03-22T09:25:52.242Z,10.28
2019-03-22T09:29:52.281Z,10.29
2019-03-22T09:31:53.656Z,10.29
2019-03-22T09:35:52.285Z,10.29
2019-03-22T09:37:52.254Z,10.30
2019-03-22T09:41:52.256Z,10.31
2019-03-22T09:43:52.308Z,10.31
2019-03-22T09:47:52.254Z,10.33
2019-03-22T09:49:57.461Z,10.33
2019-03-22T09:53:52.272Z,10.34
2019-03-22T09:55:52.293Z,10.35
2019-03-22T09:59:52.281Z,10.34
2019-03-22T10:01:56.496Z,10.37
2019-03-22T10:05:56.311Z,10.38
2019-03-22T10:07:57.296Z,10.39
2019-03-22T10:11:57.475Z,10.42
2019-03-22T10:13:52.313Z,10.44
2019-03-22T10:17:52.279Z,10.49
2019-03-22T10:19:52.296Z,10.51
2019-03-22T10:23:52.373Z,10.56
2019-03-22T10:25:57.272Z,10.58
2019-03-22T10:29:52.294Z,10.63
2019-03-22T10:31:52.301Z,10.64
2019-03-22T10:35:57.267Z,10.71
2019-03-22T10:38:00.991Z,10.74
2019-03-22T10:43:52.329Z,10.85
2019-03-22T10:45:57.395Z,10.88
2019-03-22T10:49:52.323Z,10.96
2019-03-22T10:51:57.718Z,10.99
2019-03-22T10:55:59.851Z,11.07
2019-03-22T10:57:56.175Z,11.11
2019-03-22T11:03:52.480Z,11.24
2019-03-22T11:07:52.352Z,11.32
2019-03-22T11:09:52.326Z,11.37
2019-03-22T11:13:52.351Z,11.47
2019-03-22T11:15:54.452Z,11.52
2019-03-22T11:19:52.344Z,11.61
2019-03-22T11:21:52.364Z,11.65
2019-03-22T11:26:04.047Z,11.74
2019-03-22T11:27:52.362Z,11.81
2019-03-22T11:31:52.363Z,11.91
2019-03-22T11:34:00.887Z,11.94
2019-03-22T11:37:52.365Z,12.03
2019-03-22T11:39:52.364Z,12.08
2019-03-22T11:43:52.358Z,12.18
2019-03-22T11:45:52.349Z,12.21
2019-03-22T11:49:52.372Z,12.31
2019-03-22T11:52:00.566Z,12.36
2019-03-22T11:55:52.412Z,12.47
2019-03-22T11:57:52.383Z,12.53
2019-03-22T12:01:52.388Z,12.59
2019-03-22T12:03:52.389Z,12.65
2019-03-22T12:07:52.384Z,12.74
2019-03-22T12:09:57.415Z,12.80
2019-03-22T12:13:52.401Z,12.91
2019-03-22T12:15:52.396Z,12.93
2019-03-22T12:19:52.412Z,13.03
2019-03-22T12:21:56.830Z,13.08
2019-03-22T12:25:52.424Z,13.18
2019-03-22T12:27:56.294Z,13.23
2019-03-22T12:31:52.417Z,13.31
2019-03-22T12:33:52.428Z,13.36
2019-03-22T12:37:52.404Z,13.44
2019-03-22T12:39:52.433Z,13.49
2019-03-22T12:43:52.424Z,13.58
2019-03-22T12:46:02.150Z,13.61
2019-03-22T12:49:52.423Z,13.71
2019-03-22T12:51:52.434Z,13.73
2019-03-22T12:55:52.434Z,13.81
2019-03-22T12:57:52.440Z,13.85
2019-03-22T13:01:52.451Z,13.89
2019-03-22T13:03:57.189Z,13.97
2019-03-22T13:07:57.464Z,14.00
2019-03-22T13:09:55.757Z,14.04
2019-03-22T13:15:52.472Z,14.12
2019-03-22T13:17:52.483Z,14.17
2019-03-22T13:21:53.302Z,14.20
2019-03-22T13:23:52.474Z,14.25
2019-03-22T13:27:57.502Z,14.31
2019-03-22T13:29:52.490Z,14.34
2019-03-22T13:33:57.082Z,14.36
2019-03-22T13:35:52.485Z,14.41
2019-03-22T13:39:57.456Z,14.40
2019-03-22T13:41:52.494Z,14.43
2019-03-22T13:45:52.474Z,14.48
2019-03-22T13:47:52.538Z,14.48
2019-03-22T13:51:57.431Z,14.53
2019-03-22T13:53:57.192Z,14.52
2019-03-22T13:57:52.488Z,14.58
2019-03-22T13:59:52.522Z,14.60
2019-03-22T14:03:52.520Z,14.63
2019-03-22T14:05:52.548Z,14.65
2019-03-22T14:09:56.986Z,14.66
2019-03-22T14:11:58.714Z,14.69
2019-03-22T14:15:57.119Z,14.69
2019-03-22T14:17:52.535Z,14.71
2019-03-22T14:21:52.531Z,14.73
2019-03-22T14:23:55.257Z,14.73
2019-03-22T14:27:56.334Z,14.77
2019-03-22T14:29:54.752Z,14.76
2019-03-22T14:33:56.385Z,14.79
2019-03-22T14:35:52.543Z,14.79
2019-03-22T14:39:52.566Z,14.87
2019-03-22T14:41:52.594Z,14.84
2019-03-22T14:45:52.576Z,14.82
2019-03-22T14:47:56.232Z,14.85
2019-03-22T14:51:52.567Z,14.84
2019-03-22T14:53:52.577Z,14.84
2019-03-22T14:57:57.186Z,14.83
2019-03-22T14:59:58.828Z,14.81
2019-03-22T15:03:52.574Z,14.85
2019-03-22T15:05:52.611Z,14.85
2019-03-22T15:09:52.591Z,14.87
2019-03-22T15:11:52.797Z,14.88
2019-03-22T15:15:52.566Z,14.89
2019-03-22T15:17:56.284Z,14.88
2019-03-22T15:21:52.625Z,14.90
2019-03-22T15:24:03.522Z,14.88
2019-03-22T15:27:52.596Z,14.88
2019-03-22T15:29:52.587Z,14.91
2019-03-22T15:35:52.697Z,14.92
2019-03-22T15:39:52.629Z,14.90
2019-03-22T15:41:52.627Z,14.90
2019-03-22T15:45:52.623Z,14.92
2019-03-22T15:47:52.628Z,14.94
2019-03-22T15:51:56.399Z,14.92
2019-03-22T15:53:54.459Z,14.92
2019-03-22T15:57:52.638Z,14.93
2019-03-22T15:59:52.635Z,14.94
2019-03-22T16:03:52.627Z,14.92
2019-03-22T16:05:52.628Z,14.94
2019-03-22T16:09:57.213Z,14.91
2019-03-22T16:11:52.639Z,14.92
2019-03-22T16:15:52.670Z,14.92
2019-03-22T16:17:52.651Z,14.93
2019-03-22T16:23:52.663Z,14.92
2019-03-22T16:25:52.664Z,14.92
2019-03-22T16:29:52.669Z,14.93
2019-03-22T16:31:52.662Z,14.93
2019-03-22T16:35:52.667Z,14.91
2019-03-22T16:37:52.687Z,14.90
2019-03-22T16:41:52.687Z,14.90
2019-03-22T16:43:52.676Z,14.90
2019-03-22T16:47:52.679Z,14.91
2019-03-22T16:49:52.695Z,14.88
2019-03-22T16:53:52.706Z,14.88
2019-03-22T16:55:52.693Z,14.89
2019-03-22T16:59:57.205Z,14.88
2019-03-22T17:01:52.690Z,14.87
2019-03-22T17:05:52.678Z,14.88
2019-03-22T17:07:57.696Z,14.88
2019-03-22T17:11:52.705Z,14.86
2019-03-22T17:13:52.701Z,14.86
2019-03-22T17:17:52.709Z,14.85
2019-03-22T17:19:52.713Z,14.83
2019-03-22T17:23:52.716Z,14.84
2019-03-22T17:25:52.739Z,14.83
2019-03-22T17:29:52.725Z,14.82
2019-03-22T17:31:56.354Z,14.82
2019-03-22T17:35:57.692Z,14.82
2019-03-22T17:37:52.750Z,14.81
2019-03-22T17:41:52.718Z,14.80
2019-03-22T17:43:52.728Z,14.78
2019-03-22T17:47:52.750Z,14.79
2019-03-22T17:49:52.726Z,14.79
2019-03-22T17:53:57.134Z,14.77
2019-03-22T17:55:52.740Z,14.77
2019-03-22T17:59:52.730Z,14.75
2019-03-22T18:01:58.156Z,14.74
2019-03-22T18:05:52.754Z,14.74
2019-03-22T18:07:52.782Z,14.73
2019-03-22T18:11:52.739Z,14.69
2019-03-22T18:13:52.769Z,14.69
2019-03-22T18:19:52.752Z,14.67
2019-03-22T18:23:57.100Z,14.65
2019-03-22T18:25:52.802Z,14.63
2019-03-22T18:29:52.771Z,14.61
2019-03-22T18:31:52.764Z,14.61
2019-03-22T18:35:52.777Z,14.59
2019-03-22T18:37:52.780Z,14.59
2019-03-22T18:41:52.855Z,14.56
2019-03-22T18:43:56.455Z,14.56
2019-03-22T18:47:56.535Z,14.54
2019-03-22T18:49:52.804Z,14.53
2019-03-22T18:53:52.830Z,14.52
2019-03-22T18:55:52.839Z,14.51
2019-03-22T18:59:52.850Z,14.49
2019-03-22T19:01:52.813Z,14.46
2019-03-22T19:05:52.836Z,14.46
2019-03-22T19:07:52.844Z,14.45
2019-03-22T19:11:52.821Z,14.42
2019-03-22T19:13:52.865Z,14.41
2019-03-22T19:17:52.836Z,14.38
2019-03-22T19:19:57.914Z,14.38
2019-03-22T19:23:52.863Z,14.35
2019-03-22T19:25:52.855Z,14.34
2019-03-22T19:29:52.861Z,14.31
2019-03-22T19:31:57.255Z,14.29
2019-03-22T19:35:52.890Z,14.28
2019-03-22T19:37:52.929Z,14.28
2019-03-22T19:41:52.885Z,14.25
2019-03-22T19:43:52.875Z,14.24
2019-03-22T19:47:55.076Z,14.22
2019-03-22T19:49:52.909Z,14.21
2019-03-22T19:53:52.921Z,14.19
2019-03-22T19:55:52.911Z,14.19
2019-03-22T19:59:52.912Z,14.16
2019-03-22T20:01:52.903Z,14.15
2019-03-22T20:05:52.900Z,14.13
2019-03-22T20:07:52.892Z,14.12
2019-03-22T20:11:52.905Z,14.11
2019-03-22T20:13:52.886Z,14.09
2019-03-22T20:17:52.892Z,14.07
2019-03-22T20:20:02.079Z,14.07
2019-03-22T20:23:53.764Z,14.03
2019-03-22T20:25:52.906Z,14.03
2019-03-22T20:29:52.902Z,14.02
2019-03-22T20:31:52.924Z,14.00
2019-03-22T20:35:52.906Z,13.97
2019-03-22T20:37:52.911Z,13.95
2019-03-22T20:41:52.898Z,13.93
2019-03-22T20:43:52.920Z,13.92
2019-03-22T20:47:52.931Z,13.90
2019-03-22T20:50:01.859Z,13.90
2019-03-22T20:53:52.954Z,13.86
2019-03-22T20:55:52.942Z,13.85
2019-03-22T20:59:52.954Z,13.84
2019-03-22T21:01:52.926Z,13.84
2019-03-22T21:05:52.949Z,13.81
2019-03-22T21:07:52.942Z,13.80
2019-03-22T21:11:57.340Z,13.78
2019-03-22T21:13:52.945Z,13.75
2019-03-22T21:17:52.929Z,13.74
2019-03-22T21:20:01.888Z,13.72
2019-03-22T21:23:52.980Z,13.73
2019-03-22T21:25:52.963Z,13.71
2019-03-22T21:29:57.473Z,13.68
2019-03-22T21:31:52.994Z,13.66
2019-03-22T21:35:52.995Z,13.64
2019-03-22T21:37:52.964Z,13.62
2019-03-22T21:41:52.986Z,13.61
2019-03-22T21:43:52.999Z,13.59
2019-03-22T21:47:52.972Z,13.56
2019-03-22T21:50:02.279Z,13.55
2019-03-22T21:53:52.991Z,13.43
2019-03-22T21:55:54.290Z,13.39
2019-03-22T21:59:53.013Z,13.42
2019-03-22T22:01:52.995Z,13.40
2019-03-22T22:05:54.047Z,13.41
2019-03-22T22:07:53.006Z,13.41
2019-03-22T22:11:52.993Z,13.36
2019-03-22T22:13:53.019Z,13.36
2019-03-22T22:17:53.002Z,13.34
2019-03-22T22:19:53.006Z,13.32
2019-03-22T22:23:55.253Z,13.31
2019-03-22T22:25:52.994Z,13.28
2019-03-22T22:29:53.018Z,13.26
2019-03-22T22:31:53.005Z,13.23
2019-03-22T22:35:59.153Z,13.20
2019-03-22T22:37:53.039Z,13.20
2019-03-22T22:41:53.041Z,13.18
2019-03-22T22:43:53.026Z,13.16
2019-03-22T22:47:53.030Z,13.15
2019-03-22T22:49:53.044Z,13.13
2019-03-22T22:53:55.346Z,13.11
2019-03-22T22:55:53.033Z,13.09
2019-03-22T22:59:53.062Z,13.09
2019-03-22T23:01:53.046Z,13.05
2019-03-22T23:05:53.053Z,13.02
2019-03-22T23:07:53.059Z,13.02
2019-03-22T23:11:53.056Z,12.98
2019-03-22T23:13:53.061Z,12.97
2019-03-22T23:17:53.139Z,12.95
2019-03-22T23:19:53.074Z,12.94
2019-03-22T23:23:53.104Z,12.92
2019-03-22T23:25:53.391Z,12.91
2019-03-22T23:29:53.123Z,12.89
2019-03-22T23:31:53.096Z,12.89
2019-03-22T23:35:53.137Z,12.86
2019-03-22T23:37:53.133Z,12.85
2019-03-22T23:41:53.118Z,12.83
2019-03-22T23:43:54.148Z,12.81
2019-03-22T23:47:55.267Z,12.80
2019-03-22T23:49:53.140Z,12.78
2019-03-22T23:53:53.145Z,12.76
2019-03-22T23:55:53.147Z,12.74
2019-03-22T23:59:53.134Z,12.73
